Shana Des Slops — FFZR — position and weather

sailwx.info

Track history (hours):
 
Tides and Currents Weather Stations Pressure Air Temp Water Temp Dewpoint Dewpoint Depression Visibility Wind Speed Wind Dir Waves Ship Positions

Shana Des Slops

Last reported at 2015-Apr-18 06:25 UTC. Time now 2015-Apr-18 07:19 UTC.
Position N 43°24' E 004°60'.

Length 47 m; draft 3.2 m.

Type: Tanker. MMSI: 228003800.

Date/timePositionNaut miles runAvg speedWind from/ knotsBaromVisibWave heightAir tempDewpointWater temp
2015-Apr-18 06:25N 43°24' E 004°60'0 0.0
2015-Apr-18 05:33N 43°24' E 004°60'0 0.0
2015-Apr-18 04:30N 43°24' E 004°60'0 0.0
2015-Apr-18 03:32N 43°24' E 004°60'0 0.0
2015-Apr-18 02:33N 43°24' E 004°60'0 0.0
2015-Apr-18 01:33N 43°24' E 004°60'0 0.0
2015-Apr-18 00:33N 43°24' E 004°60'0 0.0
2015-Apr-17 23:33N 43°24' E 004°60'0 0.0
2015-Apr-17 22:33N 43°24' E 004°60'0 0.0
2015-Apr-17 21:33N 43°24' E 004°60'0 0.0
2015-Apr-17 20:27N 43°24' E 004°60'0 0.0
2015-Apr-17 19:27N 43°24' E 004°60'0 0.0
2015-Apr-17 18:27N 43°24' E 004°60'0 0.0
2015-Apr-17 17:33N 43°24' E 004°60'0 0.0
2015-Apr-17 16:33N 43°24' E 004°60'0 0.0
2015-Apr-17 15:21N 43°24' E 004°60'0 0.2
2015-Apr-17 14:33N 43°24' E 004°60'4 4.1
2015-Apr-17 13:28N 43°26' E 004°54'0 0.0
2015-Apr-17 12:28N 43°26' E 004°54'0 0.0
2015-Apr-17 11:28N 43°26' E 004°54'0 0.0
2015-Apr-17 10:28N 43°26' E 004°54'0 0.0
2015-Apr-17 09:22N 43°26' E 004°54'0 0.0
2015-Apr-17 08:31N 43°26' E 004°54'0 0.0
2015-Apr-17 07:28N 43°26' E 004°54'1 1.6
2015-Apr-17 06:34N 43°24' E 004°54'4 4.4
2015-Apr-17 05:33N 43°24' E 004°60'0 0.0
2015-Apr-17 04:34N 43°24' E 004°60'0 0.0
2015-Apr-17 03:33N 43°24' E 004°60'0 0.0
2015-Apr-17 02:33N 43°24' E 004°60'0 0.0
2015-Apr-17 01:33N 43°24' E 004°60'0 0.0
2015-Apr-17 00:33N 43°24' E 004°60'0 0.0
2015-Apr-16 23:34N 43°24' E 004°60'0 0.0
2015-Apr-16 22:33N 43°24' E 004°60'0 0.0
2015-Apr-16 21:33N 43°24' E 004°60'0 0.0
2015-Apr-16 20:33N 43°24' E 004°60'0 0.0
2015-Apr-16 19:33N 43°24' E 004°60'0 0.0
2015-Apr-16 18:34N 43°24' E 004°60'0 0.0
2015-Apr-16 17:34N 43°24' E 004°60'0 0.0
2015-Apr-16 16:33N 43°24' E 004°60'0 0.0
2015-Apr-16 15:33N 43°24' E 004°60'0 0.0
2015-Apr-16 14:33N 43°24' E 004°60'0 0.0
2015-Apr-16 13:33N 43°24' E 004°60'0 0.0
2015-Apr-16 12:34N 43°24' E 004°60'0 0.0
2015-Apr-16 11:33N 43°24' E 004°60'0 0.0
2015-Apr-16 10:33N 43°24' E 004°60'0 0.0
2015-Apr-16 09:33N 43°24' E 004°60'0 0.0
2015-Apr-16 08:33N 43°24' E 004°60'1 1.2
2015-Apr-16 07:33N 43°23' E 004°59'2 1.6
2015-Apr-16 06:34N 43°22' E 004°59'1 1.0
2015-Apr-16 05:33N 43°23' E 004°59'2 1.6
2015-Apr-16 04:33N 43°24' E 004°60'0 0.0
2015-Apr-16 03:33N 43°24' E 004°60'0 0.0
2015-Apr-16 02:27N 43°24' E 004°60'0 0.0
2015-Apr-16 01:33N 43°24' E 004°60'0 0.0
2015-Apr-16 00:33N 43°24' E 004°60'0 0.0
2015-Apr-15 23:33N 43°24' E 004°60'0 0.0
2015-Apr-15 22:27N 43°24' E 004°60'0 0.0
2015-Apr-15 21:33N 43°24' E 004°60'0 0.0
2015-Apr-15 20:33N 43°24' E 004°60'0 0.0
2015-Apr-15 19:33N 43°24' E 004°60'0 0.0
2015-Apr-15 18:33N 43°24' E 004°60'0 0.0
2015-Apr-15 17:33N 43°24' E 004°60'0 0.0
2015-Apr-15 16:27N 43°24' E 004°60'0 0.0
2015-Apr-15 15:21N 43°24' E 004°60'0 0.0
2015-Apr-15 14:33N 43°24' E 004°60'0 0.0
2015-Apr-15 13:33N 43°24' E 004°60'0 0.0
2015-Apr-15 12:33N 43°24' E 004°60'0 0.0
2015-Apr-15 11:33N 43°24' E 004°60'0 0.0
2015-Apr-15 10:33N 43°24' E 004°60'0 0.0
2015-Apr-15 09:21N 43°24' E 004°60'0 0.0
2015-Apr-15 08:33N 43°24' E 004°60'0 0.0
2015-Apr-15 07:33N 43°24' E 004°60'0 0.0
2015-Apr-15 06:33N 43°24' E 004°60'0 0.0
2015-Apr-15 05:24N 43°24' E 004°60'0 0.0
2015-Apr-15 04:33N 43°24' E 004°60'0 0.0
2015-Apr-15 03:32N 43°24' E 004°60'0 0.0
2015-Apr-15 02:32N 43°24' E 004°60'0 0.0
2015-Apr-15 01:27N 43°24' E 004°60'0 0.0
2015-Apr-15 00:26N 43°24' E 004°60'0 0.0
2015-Apr-14 23:32N 43°24' E 004°60'0 0.0
2015-Apr-14 22:29N 43°24' E 004°60'0 0.0
2015-Apr-14 21:32N 43°24' E 004°60'0 0.0
2015-Apr-14 20:32N 43°24' E 004°60'0 0.0
2015-Apr-14 19:32N 43°24' E 004°60'0 0.0
2015-Apr-14 18:33N 43°24' E 004°60'0 0.0
2015-Apr-14 17:33N 43°24' E 004°60'0 0.0
2015-Apr-14 16:33N 43°24' E 004°60'0 0.0
2015-Apr-14 15:33N 43°24' E 004°60'0 0.0
2015-Apr-14 14:33N 43°24' E 004°60'0 0.0
2015-Apr-14 13:33N 43°24' E 004°60'0 0.0
2015-Apr-14 12:33N 43°24' E 004°60'0 0.0
2015-Apr-14 11:33N 43°24' E 004°60'0 0.0
2015-Apr-14 10:33N 43°24' E 004°60'0 0.0
2015-Apr-14 09:30N 43°24' E 004°60'0 0.0
2015-Apr-14 08:33N 43°24' E 004°60'0 0.0
2015-Apr-14 07:32N 43°24' E 004°60'0 0.0
2015-Apr-14 06:32N 43°24' E 004°60'0 0.0
2015-Apr-14 05:32N 43°24' E 004°60'0 0.0
2015-Apr-14 04:29N 43°24' E 004°60'0 0.0
2015-Apr-14 03:24N 43°24' E 004°60'0 0.0
2015-Apr-14 02:33N 43°24' E 004°60'0 0.0
2015-Apr-14 01:33N 43°24' E 004°60'0 0.0
2015-Apr-14 00:33N 43°24' E 004°60'0 0.0
2015-Apr-13 23:33N 43°24' E 004°60'0 0.0
2015-Apr-13 22:30N 43°24' E 004°60'0 0.0
2015-Apr-13 21:33N 43°24' E 004°60'0 0.0
2015-Apr-13 20:30N 43°24' E 004°60'0 0.0
2015-Apr-13 19:33N 43°24' E 004°60'0 0.0
2015-Apr-13 18:33N 43°24' E 004°60'0 0.0
2015-Apr-13 17:33N 43°24' E 004°60'0 0.0
2015-Apr-13 16:33N 43°24' E 004°60'0 0.0
2015-Apr-13 15:33N 43°24' E 004°60'0 0.0
2015-Apr-13 14:33N 43°24' E 004°60'0 0.0
2015-Apr-13 13:33N 43°24' E 004°60'0 0.0
2015-Apr-13 12:30N 43°24' E 004°60'0 0.0
2015-Apr-13 11:33N 43°24' E 004°60'0 0.0
2015-Apr-13 10:29N 43°24' E 004°60'0 0.0
2015-Apr-13 09:32N 43°24' E 004°60'0 0.0
2015-Apr-13 08:32N 43°24' E 004°60'0 0.4
2015-Apr-13 07:33N 43°24' E 004°60'0 0.0
2015-Apr-13 06:33N 43°24' E 004°60'0 0.4
2015-Apr-13 05:28N 43°24' E 004°60'0 0.0
2015-Apr-13 04:22N 43°24' E 004°60'0 0.0
2015-Apr-13 03:28N 43°24' E 004°60'0 0.0
2015-Apr-13 02:33N 43°24' E 004°60'0 0.0
2015-Apr-13 01:27N 43°24' E 004°60'0 0.0
2015-Apr-13 00:33N 43°24' E 004°60'0 0.0
2015-Apr-12 23:33N 43°24' E 004°60'0 0.0
2015-Apr-12 22:33N 43°24' E 004°60'0 0.0
2015-Apr-12 21:33N 43°24' E 004°60'0 0.0
2015-Apr-12 20:33N 43°24' E 004°60'0 0.0
2015-Apr-12 19:33N 43°24' E 004°60'0 0.0
2015-Apr-12 18:33N 43°24' E 004°60'0 0.0
2015-Apr-12 17:33N 43°24' E 004°60'0 0.0
2015-Apr-12 16:33N 43°24' E 004°60'0 0.0
2015-Apr-12 15:33N 43°24' E 004°60'0 0.0
2015-Apr-12 14:33N 43°24' E 004°60'0 0.0
2015-Apr-12 13:33N 43°24' E 004°60'0 0.0
2015-Apr-12 12:33N 43°24' E 004°60'0 0.0
2015-Apr-12 11:33N 43°24' E 004°60'0 0.0
2015-Apr-12 10:33N 43°24' E 004°60'0 0.0
2015-Apr-12 09:33N 43°24' E 004°60'0 0.0
2015-Apr-12 08:33N 43°24' E 004°60'0 0.0
2015-Apr-12 07:33N 43°24' E 004°60'0 0.0
2015-Apr-12 06:33N 43°24' E 004°60'0 0.0
2015-Apr-12 05:33N 43°24' E 004°60'0 0.0
2015-Apr-12 04:33N 43°24' E 004°60'0 0.0
2015-Apr-12 03:17N 43°24' E 004°60'0 0.0
2015-Apr-12 02:29N 43°24' E 004°60'0 0.0
2015-Apr-12 01:29N 43°24' E 004°60'0 0.0
2015-Apr-12 00:23N 43°24' E 004°60'0 0.0
2015-Apr-11 23:26N 43°24' E 004°60'0 0.0
2015-Apr-11 22:32N 43°24' E 004°60'0 0.0
2015-Apr-11 21:29N 43°24' E 004°60'0 0.0
2015-Apr-11 20:32N 43°24' E 004°60'0 0.0
2015-Apr-11 19:26N 43°24' E 004°60'0 0.0
2015-Apr-11 18:29N 43°24' E 004°60'0 0.0
2015-Apr-11 17:32N 43°24' E 004°60'0 0.0
2015-Apr-11 16:32N 43°24' E 004°60'0 0.0
2015-Apr-11 15:26N 43°24' E 004°60'0 0.0
2015-Apr-11 14:29N 43°24' E 004°60'0 0.0
2015-Apr-11 13:29N 43°24' E 004°60'0 0.0
2015-Apr-11 12:29N 43°24' E 004°60'0 0.0
2015-Apr-11 11:32N 43°24' E 004°60'0 0.0
2015-Apr-11 10:32N 43°24' E 004°60'0 0.0
2015-Apr-11 09:29N 43°24' E 004°60'0 0.0
2015-Apr-11 08:29N 43°24' E 004°60'0 0.0
2015-Apr-11 07:25N 43°24' E 004°60'0 0.0
2015-Apr-11 06:28N 43°24' E 004°60'0 0.0
2015-Apr-11 05:31N 43°24' E 004°60'0 0.0
2015-Apr-11 04:31N 43°24' E 004°60'0 0.0
2015-Apr-11 03:28N 43°24' E 004°60'0 0.0
2015-Apr-11 02:28N 43°24' E 004°60'0 0.0
2015-Apr-11 01:28N 43°24' E 004°60'0 0.0
2015-Apr-11 00:28N 43°24' E 004°60'0 0.0
2015-Apr-10 23:28N 43°24' E 004°60'0 0.0
2015-Apr-10 22:22N 43°24' E 004°60'0 0.0
2015-Apr-10 21:31N 43°24' E 004°60'0 0.0
2015-Apr-10 20:22N 43°24' E 004°60'0 0.0
2015-Apr-10 19:28N 43°24' E 004°60'0 0.0
2015-Apr-10 18:28N 43°24' E 004°60'0 0.0
2015-Apr-10 17:16N 43°24' E 004°60'0 0.0
2015-Apr-10 16:31N 43°24' E 004°60'0 0.0
2015-Apr-10 15:29N 43°24' E 004°60'0 0.0
2015-Apr-10 14:33N 43°24' E 004°60'2 1.9
2015-Apr-10 13:30N 43°24' E 004°57'0 0.0
2015-Apr-10 12:30N 43°24' E 004°57'0 0.0
2015-Apr-10 11:27N 43°24' E 004°57'0 0.0
2015-Apr-10 10:33N 43°24' E 004°57'0 0.0
2015-Apr-10 09:30N 43°24' E 004°57'0 0.0
2015-Apr-10 08:34N 43°24' E 004°57'2 1.9
2015-Apr-10 07:29N 43°24' E 004°60'0 0.0
2015-Apr-10 06:29N 43°24' E 004°60'0 0.0
2015-Apr-10 05:26N 43°24' E 004°60'0 0.0
2015-Apr-10 04:29N 43°24' E 004°60'0 0.0
2015-Apr-10 03:32N 43°24' E 004°60'0 0.0
2015-Apr-10 02:29N 43°24' E 004°60'0 0.0
2015-Apr-10 01:29N 43°24' E 004°60'0 0.0
2015-Apr-10 00:29N 43°24' E 004°60'0 0.0
2015-Apr-09 23:32N 43°24' E 004°60'0 0.0
2015-Apr-09 22:26N 43°24' E 004°60'0 0.0
2015-Apr-09 21:20N 43°24' E 004°60'0 0.0
2015-Apr-09 20:32N 43°24' E 004°60'0 0.0
2015-Apr-09 19:32N 43°24' E 004°60'0 0.0
2015-Apr-09 18:32N 43°24' E 004°60'0 0.0
2015-Apr-09 17:32N 43°24' E 004°60'0 0.0
2015-Apr-09 16:29N 43°24' E 004°60'0 0.0
2015-Apr-09 15:32N 43°24' E 004°60'0 0.0
2015-Apr-09 14:26N 43°24' E 004°60'0 0.0
2015-Apr-09 13:32N 43°24' E 004°60'0 0.0
2015-Apr-09 12:26N 43°24' E 004°60'0 0.0
2015-Apr-09 11:32N 43°24' E 004°60'0 0.0
2015-Apr-09 10:32N 43°24' E 004°60'0 0.0
2015-Apr-09 09:32N 43°24' E 004°60'0 0.0
2015-Apr-09 08:32N 43°24' E 004°60'0 0.0
2015-Apr-09 07:32N 43°24' E 004°60'0 0.0
2015-Apr-09 06:32N 43°24' E 004°60'0 0.0
2015-Apr-09 05:31N 43°24' E 004°60'0 0.0
2015-Apr-09 04:28N 43°24' E 004°60'0 0.0
2015-Apr-09 03:25N 43°24' E 004°60'0 0.0
2015-Apr-09 02:31N 43°24' E 004°60'0 0.0
2015-Apr-09 01:31N 43°24' E 004°60'0 0.0
2015-Apr-09 00:31N 43°24' E 004°60'0 0.0
2015-Apr-08 23:31N 43°24' E 004°60'0 0.0
2015-Apr-08 22:31N 43°24' E 004°60'0 0.0
2015-Apr-08 21:31N 43°24' E 004°60'0 0.0
2015-Apr-08 20:31N 43°24' E 004°60'0 0.0
2015-Apr-08 19:31N 43°24' E 004°60'0 0.0
2015-Apr-08 18:31N 43°24' E 004°60'0 0.0
2015-Apr-08 17:31N 43°24' E 004°60'0 0.0
2015-Apr-08 16:31N 43°24' E 004°60'0 0.0
2015-Apr-08 15:31N 43°24' E 004°60'0 0.0
2015-Apr-08 14:31N 43°24' E 004°60'0 0.0
2015-Apr-08 13:31N 43°24' E 004°60'0 0.0
2015-Apr-08 12:31N 43°24' E 004°60'0 0.0
2015-Apr-08 11:25N 43°24' E 004°60'0 0.0
2015-Apr-08 10:25N 43°24' E 004°60'0 0.0
2015-Apr-08 09:31N 43°24' E 004°60'0 0.0
2015-Apr-08 08:25N 43°24' E 004°60'0 0.0
2015-Apr-08 07:31N 43°24' E 004°60'0 0.0
2015-Apr-08 06:28N 43°24' E 004°60'  
Track history (hours):
 
Tides and Currents Weather Stations Pressure Air Temp Water Temp Dewpoint Dewpoint Depression Visibility Wind Speed Wind Dir Waves Ship Positions

Shana Des Slops

Last reported at 2015-Apr-18 06:25 UTC. Time now 2015-Apr-18 07:19 UTC.
Position N 43°24' E 004°60'.

Length 47 m; draft 3.2 m.

Type: Tanker. MMSI: 228003800.

Date/timePositionNaut miles runAvg speedWind from/ knotsBaromVisibWave heightAir tempDewpointWater temp
2015-Apr-18 06:25N 43°24' E 004°60'0 0.0
2015-Apr-18 05:33N 43°24' E 004°60'0 0.0
2015-Apr-18 04:30N 43°24' E 004°60'0 0.0
2015-Apr-18 03:32N 43°24' E 004°60'0 0.0
2015-Apr-18 02:33N 43°24' E 004°60'0 0.0
2015-Apr-18 01:33N 43°24' E 004°60'0 0.0
2015-Apr-18 00:33N 43°24' E 004°60'0 0.0
2015-Apr-17 23:33N 43°24' E 004°60'0 0.0
2015-Apr-17 22:33N 43°24' E 004°60'0 0.0
2015-Apr-17 21:33N 43°24' E 004°60'0 0.0
2015-Apr-17 20:27N 43°24' E 004°60'0 0.0
2015-Apr-17 19:27N 43°24' E 004°60'0 0.0
2015-Apr-17 18:27N 43°24' E 004°60'0 0.0
2015-Apr-17 17:33N 43°24' E 004°60'0 0.0
2015-Apr-17 16:33N 43°24' E 004°60'0 0.0
2015-Apr-17 15:21N 43°24' E 004°60'0 0.2
2015-Apr-17 14:33N 43°24' E 004°60'4 4.1
2015-Apr-17 13:28N 43°26' E 004°54'0 0.0
2015-Apr-17 12:28N 43°26' E 004°54'0 0.0
2015-Apr-17 11:28N 43°26' E 004°54'0 0.0
2015-Apr-17 10:28N 43°26' E 004°54'0 0.0
2015-Apr-17 09:22N 43°26' E 004°54'0 0.0
2015-Apr-17 08:31N 43°26' E 004°54'0 0.0
2015-Apr-17 07:28N 43°26' E 004°54'1 1.6
2015-Apr-17 06:34N 43°24' E 004°54'4 4.4
2015-Apr-17 05:33N 43°24' E 004°60'0 0.0
2015-Apr-17 04:34N 43°24' E 004°60'0 0.0
2015-Apr-17 03:33N 43°24' E 004°60'0 0.0
2015-Apr-17 02:33N 43°24' E 004°60'0 0.0
2015-Apr-17 01:33N 43°24' E 004°60'0 0.0
2015-Apr-17 00:33N 43°24' E 004°60'0 0.0
2015-Apr-16 23:34N 43°24' E 004°60'0 0.0
2015-Apr-16 22:33N 43°24' E 004°60'0 0.0
2015-Apr-16 21:33N 43°24' E 004°60'0 0.0
2015-Apr-16 20:33N 43°24' E 004°60'0 0.0
2015-Apr-16 19:33N 43°24' E 004°60'0 0.0
2015-Apr-16 18:34N 43°24' E 004°60'0 0.0
2015-Apr-16 17:34N 43°24' E 004°60'0 0.0
2015-Apr-16 16:33N 43°24' E 004°60'0 0.0
2015-Apr-16 15:33N 43°24' E 004°60'0 0.0
2015-Apr-16 14:33N 43°24' E 004°60'0 0.0
2015-Apr-16 13:33N 43°24' E 004°60'0 0.0
2015-Apr-16 12:34N 43°24' E 004°60'0 0.0
2015-Apr-16 11:33N 43°24' E 004°60'0 0.0
2015-Apr-16 10:33N 43°24' E 004°60'0 0.0
2015-Apr-16 09:33N 43°24' E 004°60'0 0.0
2015-Apr-16 08:33N 43°24' E 004°60'1 1.2
2015-Apr-16 07:33N 43°23' E 004°59'2 1.6
2015-Apr-16 06:34N 43°22' E 004°59'1 1.0
2015-Apr-16 05:33N 43°23' E 004°59'2 1.6
2015-Apr-16 04:33N 43°24' E 004°60'0 0.0
2015-Apr-16 03:33N 43°24' E 004°60'0 0.0
2015-Apr-16 02:27N 43°24' E 004°60'0 0.0
2015-Apr-16 01:33N 43°24' E 004°60'0 0.0
2015-Apr-16 00:33N 43°24' E 004°60'0 0.0
2015-Apr-15 23:33N 43°24' E 004°60'0 0.0
2015-Apr-15 22:27N 43°24' E 004°60'0 0.0
2015-Apr-15 21:33N 43°24' E 004°60'0 0.0
2015-Apr-15 20:33N 43°24' E 004°60'0 0.0
2015-Apr-15 19:33N 43°24' E 004°60'0 0.0
2015-Apr-15 18:33N 43°24' E 004°60'0 0.0
2015-Apr-15 17:33N 43°24' E 004°60'0 0.0
2015-Apr-15 16:27N 43°24' E 004°60'0 0.0
2015-Apr-15 15:21N 43°24' E 004°60'0 0.0
2015-Apr-15 14:33N 43°24' E 004°60'0 0.0
2015-Apr-15 13:33N 43°24' E 004°60'0 0.0
2015-Apr-15 12:33N 43°24' E 004°60'0 0.0
2015-Apr-15 11:33N 43°24' E 004°60'0 0.0
2015-Apr-15 10:33N 43°24' E 004°60'0 0.0
2015-Apr-15 09:21N 43°24' E 004°60'0 0.0
2015-Apr-15 08:33N 43°24' E 004°60'0 0.0
2015-Apr-15 07:33N 43°24' E 004°60'0 0.0
2015-Apr-15 06:33N 43°24' E 004°60'0 0.0
2015-Apr-15 05:24N 43°24' E 004°60'0 0.0
2015-Apr-15 04:33N 43°24' E 004°60'0 0.0
2015-Apr-15 03:32N 43°24' E 004°60'0 0.0
2015-Apr-15 02:32N 43°24' E 004°60'0 0.0
2015-Apr-15 01:27N 43°24' E 004°60'0 0.0
2015-Apr-15 00:26N 43°24' E 004°60'0 0.0
2015-Apr-14 23:32N 43°24' E 004°60'0 0.0
2015-Apr-14 22:29N 43°24' E 004°60'0 0.0
2015-Apr-14 21:32N 43°24' E 004°60'0 0.0
2015-Apr-14 20:32N 43°24' E 004°60'0 0.0
2015-Apr-14 19:32N 43°24' E 004°60'0 0.0
2015-Apr-14 18:33N 43°24' E 004°60'0 0.0
2015-Apr-14 17:33N 43°24' E 004°60'0 0.0
2015-Apr-14 16:33N 43°24' E 004°60'0 0.0
2015-Apr-14 15:33N 43°24' E 004°60'0 0.0
2015-Apr-14 14:33N 43°24' E 004°60'0 0.0
2015-Apr-14 13:33N 43°24' E 004°60'0 0.0
2015-Apr-14 12:33N 43°24' E 004°60'0 0.0
2015-Apr-14 11:33N 43°24' E 004°60'0 0.0
2015-Apr-14 10:33N 43°24' E 004°60'0 0.0
2015-Apr-14 09:30N 43°24' E 004°60'0 0.0
2015-Apr-14 08:33N 43°24' E 004°60'0 0.0
2015-Apr-14 07:32N 43°24' E 004°60'0 0.0
2015-Apr-14 06:32N 43°24' E 004°60'0 0.0
2015-Apr-14 05:32N 43°24' E 004°60'0 0.0
2015-Apr-14 04:29N 43°24' E 004°60'0 0.0
2015-Apr-14 03:24N 43°24' E 004°60'0 0.0
2015-Apr-14 02:33N 43°24' E 004°60'0 0.0
2015-Apr-14 01:33N 43°24' E 004°60'0 0.0
2015-Apr-14 00:33N 43°24' E 004°60'0 0.0
2015-Apr-13 23:33N 43°24' E 004°60'0 0.0
2015-Apr-13 22:30N 43°24' E 004°60'0 0.0
2015-Apr-13 21:33N 43°24' E 004°60'0 0.0
2015-Apr-13 20:30N 43°24' E 004°60'0 0.0
2015-Apr-13 19:33N 43°24' E 004°60'0 0.0
2015-Apr-13 18:33N 43°24' E 004°60'0 0.0
2015-Apr-13 17:33N 43°24' E 004°60'0 0.0
2015-Apr-13 16:33N 43°24' E 004°60'0 0.0
2015-Apr-13 15:33N 43°24' E 004°60'0 0.0
2015-Apr-13 14:33N 43°24' E 004°60'0 0.0
2015-Apr-13 13:33N 43°24' E 004°60'0 0.0
2015-Apr-13 12:30N 43°24' E 004°60'0 0.0
2015-Apr-13 11:33N 43°24' E 004°60'0 0.0
2015-Apr-13 10:29N 43°24' E 004°60'0 0.0
2015-Apr-13 09:32N 43°24' E 004°60'0 0.0
2015-Apr-13 08:32N 43°24' E 004°60'0 0.4
2015-Apr-13 07:33N 43°24' E 004°60'0 0.0
2015-Apr-13 06:33N 43°24' E 004°60'0 0.4
2015-Apr-13 05:28N 43°24' E 004°60'0 0.0
2015-Apr-13 04:22N 43°24' E 004°60'0 0.0
2015-Apr-13 03:28N 43°24' E 004°60'0 0.0
2015-Apr-13 02:33N 43°24' E 004°60'0 0.0
2015-Apr-13 01:27N 43°24' E 004°60'0 0.0
2015-Apr-13 00:33N 43°24' E 004°60'0 0.0
2015-Apr-12 23:33N 43°24' E 004°60'0 0.0
2015-Apr-12 22:33N 43°24' E 004°60'0 0.0
2015-Apr-12 21:33N 43°24' E 004°60'0 0.0
2015-Apr-12 20:33N 43°24' E 004°60'0 0.0
2015-Apr-12 19:33N 43°24' E 004°60'0 0.0
2015-Apr-12 18:33N 43°24' E 004°60'0 0.0
2015-Apr-12 17:33N 43°24' E 004°60'0 0.0
2015-Apr-12 16:33N 43°24' E 004°60'0 0.0
2015-Apr-12 15:33N 43°24' E 004°60'0 0.0
2015-Apr-12 14:33N 43°24' E 004°60'0 0.0
2015-Apr-12 13:33N 43°24' E 004°60'0 0.0
2015-Apr-12 12:33N 43°24' E 004°60'0 0.0
2015-Apr-12 11:33N 43°24' E 004°60'0 0.0
2015-Apr-12 10:33N 43°24' E 004°60'0 0.0
2015-Apr-12 09:33N 43°24' E 004°60'0 0.0
2015-Apr-12 08:33N 43°24' E 004°60'0 0.0
2015-Apr-12 07:33N 43°24' E 004°60'0 0.0
2015-Apr-12 06:33N 43°24' E 004°60'0 0.0
2015-Apr-12 05:33N 43°24' E 004°60'0 0.0
2015-Apr-12 04:33N 43°24' E 004°60'0 0.0
2015-Apr-12 03:17N 43°24' E 004°60'0 0.0
2015-Apr-12 02:29N 43°24' E 004°60'0 0.0
2015-Apr-12 01:29N 43°24' E 004°60'0 0.0
2015-Apr-12 00:23N 43°24' E 004°60'0 0.0
2015-Apr-11 23:26N 43°24' E 004°60'0 0.0
2015-Apr-11 22:32N 43°24' E 004°60'0 0.0
2015-Apr-11 21:29N 43°24' E 004°60'0 0.0
2015-Apr-11 20:32N 43°24' E 004°60'0 0.0
2015-Apr-11 19:26N 43°24' E 004°60'0 0.0
2015-Apr-11 18:29N 43°24' E 004°60'0 0.0
2015-Apr-11 17:32N 43°24' E 004°60'0 0.0
2015-Apr-11 16:32N 43°24' E 004°60'0 0.0
2015-Apr-11 15:26N 43°24' E 004°60'0 0.0
2015-Apr-11 14:29N 43°24' E 004°60'0 0.0
2015-Apr-11 13:29N 43°24' E 004°60'0 0.0
2015-Apr-11 12:29N 43°24' E 004°60'0 0.0
2015-Apr-11 11:32N 43°24' E 004°60'0 0.0
2015-Apr-11 10:32N 43°24' E 004°60'0 0.0
2015-Apr-11 09:29N 43°24' E 004°60'0 0.0
2015-Apr-11 08:29N 43°24' E 004°60'0 0.0
2015-Apr-11 07:25N 43°24' E 004°60'0 0.0
2015-Apr-11 06:28N 43°24' E 004°60'0 0.0
2015-Apr-11 05:31N 43°24' E 004°60'0 0.0
2015-Apr-11 04:31N 43°24' E 004°60'0 0.0
2015-Apr-11 03:28N 43°24' E 004°60'0 0.0
2015-Apr-11 02:28N 43°24' E 004°60'0 0.0
2015-Apr-11 01:28N 43°24' E 004°60'0 0.0
2015-Apr-11 00:28N 43°24' E 004°60'0 0.0
2015-Apr-10 23:28N 43°24' E 004°60'0 0.0
2015-Apr-10 22:22N 43°24' E 004°60'0 0.0
2015-Apr-10 21:31N 43°24' E 004°60'0 0.0
2015-Apr-10 20:22N 43°24' E 004°60'0 0.0
2015-Apr-10 19:28N 43°24' E 004°60'0 0.0
2015-Apr-10 18:28N 43°24' E 004°60'0 0.0
2015-Apr-10 17:16N 43°24' E 004°60'0 0.0
2015-Apr-10 16:31N 43°24' E 004°60'0 0.0
2015-Apr-10 15:29N 43°24' E 004°60'0 0.0
2015-Apr-10 14:33N 43°24' E 004°60'2 1.9
2015-Apr-10 13:30N 43°24' E 004°57'0 0.0
2015-Apr-10 12:30N 43°24' E 004°57'0 0.0
2015-Apr-10 11:27N 43°24' E 004°57'0 0.0
2015-Apr-10 10:33N 43°24' E 004°57'0 0.0
2015-Apr-10 09:30N 43°24' E 004°57'0 0.0
2015-Apr-10 08:34N 43°24' E 004°57'2 1.9
2015-Apr-10 07:29N 43°24' E 004°60'0 0.0
2015-Apr-10 06:29N 43°24' E 004°60'0 0.0
2015-Apr-10 05:26N 43°24' E 004°60'0 0.0
2015-Apr-10 04:29N 43°24' E 004°60'0 0.0
2015-Apr-10 03:32N 43°24' E 004°60'0 0.0
2015-Apr-10 02:29N 43°24' E 004°60'0 0.0
2015-Apr-10 01:29N 43°24' E 004°60'0 0.0
2015-Apr-10 00:29N 43°24' E 004°60'0 0.0
2015-Apr-09 23:32N 43°24' E 004°60'0 0.0
2015-Apr-09 22:26N 43°24' E 004°60'0 0.0
2015-Apr-09 21:20N 43°24' E 004°60'0 0.0
2015-Apr-09 20:32N 43°24' E 004°60'0 0.0
2015-Apr-09 19:32N 43°24' E 004°60'0 0.0
2015-Apr-09 18:32N 43°24' E 004°60'0 0.0
2015-Apr-09 17:32N 43°24' E 004°60'0 0.0
2015-Apr-09 16:29N 43°24' E 004°60'0 0.0
2015-Apr-09 15:32N 43°24' E 004°60'0 0.0
2015-Apr-09 14:26N 43°24' E 004°60'0 0.0
2015-Apr-09 13:32N 43°24' E 004°60'0 0.0
2015-Apr-09 12:26N 43°24' E 004°60'0 0.0
2015-Apr-09 11:32N 43°24' E 004°60'0 0.0
2015-Apr-09 10:32N 43°24' E 004°60'0 0.0
2015-Apr-09 09:32N 43°24' E 004°60'0 0.0
2015-Apr-09 08:32N 43°24' E 004°60'0 0.0
2015-Apr-09 07:32N 43°24' E 004°60'0 0.0
2015-Apr-09 06:32N 43°24' E 004°60'0 0.0
2015-Apr-09 05:31N 43°24' E 004°60'0 0.0
2015-Apr-09 04:28N 43°24' E 004°60'0 0.0
2015-Apr-09 03:25N 43°24' E 004°60'0 0.0
2015-Apr-09 02:31N 43°24' E 004°60'0 0.0
2015-Apr-09 01:31N 43°24' E 004°60'0 0.0
2015-Apr-09 00:31N 43°24' E 004°60'0 0.0
2015-Apr-08 23:31N 43°24' E 004°60'0 0.0
2015-Apr-08 22:31N 43°24' E 004°60'0 0.0
2015-Apr-08 21:31N 43°24' E 004°60'0 0.0
2015-Apr-08 20:31N 43°24' E 004°60'0 0.0
2015-Apr-08 19:31N 43°24' E 004°60'0 0.0
2015-Apr-08 18:31N 43°24' E 004°60'0 0.0
2015-Apr-08 17:31N 43°24' E 004°60'0 0.0
2015-Apr-08 16:31N 43°24' E 004°60'0 0.0
2015-Apr-08 15:31N 43°24' E 004°60'0 0.0
2015-Apr-08 14:31N 43°24' E 004°60'0 0.0
2015-Apr-08 13:31N 43°24' E 004°60'0 0.0
2015-Apr-08 12:31N 43°24' E 004°60'0 0.0
2015-Apr-08 11:25N 43°24' E 004°60'0 0.0
2015-Apr-08 10:25N 43°24' E 004°60'0 0.0
2015-Apr-08 09:31N 43°24' E 004°60'0 0.0
2015-Apr-08 08:25N 43°24' E 004°60'0 0.0
2015-Apr-08 07:31N 43°24' E 004°60'0 0.0
2015-Apr-08 06:28N 43°24' E 004°60'  

Dump ship's entire track history